Flugplatz Nannhausen

Für EDRN sind keine METAR/TAF Berichte vorhanden.
Es werden die Flugwettermeldungen vom Flugplatz Frankfurt-Hahn in 15 km Entfernung angezeigt.

Bericht für EDFH

vom 30.03. um 22:20 UTC

Wind 4 kt aus 300°

Sichtweite 10 km oder mehr

aufgelockert bewölkt in 3000 ft

aufgebrochene Bewölkung in 4500 ft

Temperatur 2.0°C

Taupunkt -4.0°C

Luftfeuchtigkeit 64%

Luftdruck 1025 hPa

EDFH 302220Z 30004KT 280V020 9999 SCT030 BKN045 02/M04 Q1025

Prognose für EDFH

vom 30.03. um 17:00 UTC

Am 30.03. zwischen 18:00 UTC und 18:00 UTC

Wind 10 kt aus 20°

Sichtweite 10 km oder mehr

keine signifikanten Wettererscheinungen

keine Wolken


Am 30.03. zwischen 18:00 und 21:00 UTC übergehend zu

Wind 5 kt aus 30°

Sichtweite 10 km oder mehr

keine signifikanten Wettererscheinungen

keine Wolken


Am 30.03. zwischen 22:00 UTC und 04:00 UTC zeitweise mit einer Wahrscheinlichkeit von 30%

Sichtweite 2500 m

schwacher Schnee

aufgebrochene Bewölkung in 600 ft


Zwischen 06:00 und 09:00 UTC übergehend zu

Wind 10 kt aus 70°

Sichtweite 10 km oder mehr

keine signifikanten Wettererscheinungen

keine Wolken

TAF EDFH 301700Z 3018/3118 02010KT CAVOK BECMG 3018/3021 03005KT PROB30 TEMPO 3022/3104 2500 -SN BKN006 BECMG 3106/3109 07010KT
Impressum